Startpagina
METAR-TAF:

METAR-TAF

Vliegvelden :

Aeropuerto de Palma de Mallorca

Palma de Mallorca, Spanje

breedte: 39-33N, lengte: 002-44E, hoogte: 4 m

Actueel weer

Dit bericht is 20 minuten geleden gemaakt, om 06:00 UTC
Weinig wind
Temperatuur 21°C
Vochtigheid 78%
Druk 1021 hPa
Zicht 10 km of meer
geen wolken onder 1500 m en geen cumulonimbus

METAR: LEPA 190600Z 00000KT CAVOK 21/17 Q1021 NOSIG

Tijdstip: 08:20 (06:20 UTC)

Verwachting

Dit bericht is 1 uur en het 20 minuten geleden gemaakt, om 05:00 UTC
Verwachting geldig van 19 om 06 UTC tot 20 om 06 UTC
Wind 4 kt uit variabele richting
Zicht 10 km of meer
Weinig wolken op 3000 ft
Wijzigt naar
van 19 om 08 UTC tot 19 om 10 UTC
Wind 10 kt uit het noordnoordoosten
Wijzigt naar
van 19 om 18 UTC tot 19 om 20 UTC
Wind 3 kt uit variabele richting

TAF: LEPA 190500Z 1906/2006 VRB04KT 9999 FEW030 TX30/1912Z TN16/2006Z BECMG 1908/1910 03010KT BECMG 1918/1920 VRB03KT

Waarnemingen en weersverwachtingen van meer dan 4000 vliegvelden (METAR en TAF).

De beschikbare stations zijn de gele en rode punten op de kaart.

Ga met uw muis naar het station om de naam te zien.

Klik dan om waarnemingen en weersverwachtingen te zien.

kaart wijzigen: klik op de groene knoppen met een zwart kruis om in te zoomen, op de groene knop met een streepje om uit te zoomen of op de groene pijlen voor aangrenzende kaarten.


METAR-TAF: